createdAt,value
2022-10-02T00:03:04.283Z,74.13
2022-10-02T00:09:11.324Z,74.89
2022-10-02T00:15:29.206Z,76.42
2022-10-02T00:28:35.320Z,76.53
2022-10-02T00:34:47.984Z,78.78
2022-10-02T00:41:06.047Z,77.26
2022-10-02T00:47:32.166Z,76.54
2022-10-02T00:53:40.604Z,79.01
2022-10-02T01:00:03.933Z,73.53
2022-10-02T01:06:07.574Z,75.49
2022-10-02T01:12:09.941Z,75.58
2022-10-02T01:18:15.030Z,74.30
2022-10-02T01:24:26.964Z,77.52
2022-10-02T01:30:31.473Z,75.20
2022-10-02T01:36:35.611Z,74.78
2022-10-02T01:42:40.343Z,75.07
2022-10-02T01:48:48.151Z,78.61
2022-10-02T01:55:26.157Z,78.92
2022-10-02T02:01:54.401Z,78.97
2022-10-02T02:08:05.683Z,76.35
2022-10-02T02:14:31.184Z,75.75
2022-10-02T02:33:59.938Z,77.33
2022-10-02T02:40:33.088Z,77.02
2022-10-02T02:47:23.710Z,75.65
2022-10-02T02:53:32.981Z,76.03
2022-10-02T02:59:44.736Z,75.57
2022-10-02T03:06:19.216Z,76.00
2022-10-02T03:13:16.221Z,76.15
2022-10-02T03:19:43.701Z,77.09
2022-10-02T03:26:08.472Z,76.13
2022-10-02T03:32:19.045Z,75.86
2022-10-02T03:38:24.358Z,74.38
2022-10-02T03:44:28.931Z,70.74
2022-10-02T03:50:40.953Z,69.54
2022-10-02T03:56:59.185Z,70.98
2022-10-02T04:03:09.533Z,70.19
2022-10-02T04:09:19.115Z,70.08
2022-10-02T04:15:48.524Z,71.27
2022-10-02T04:22:01.379Z,72.80
2022-10-02T04:28:12.020Z,73.69
2022-10-02T04:34:18.461Z,73.61
2022-10-02T04:40:39.955Z,73.76
2022-10-02T04:46:48.055Z,74.17
2022-10-02T04:53:27.408Z,73.40
2022-10-02T05:00:05.348Z,74.11
2022-10-02T05:06:28.941Z,74.54
2022-10-02T05:13:13.046Z,74.69
2022-10-02T05:19:33.292Z,74.70
2022-10-02T05:25:47.215Z,74.35
2022-10-02T05:32:27.205Z,73.66
2022-10-02T05:38:57.290Z,73.64
2022-10-02T05:45:17.018Z,72.86
2022-10-02T05:51:49.718Z,72.83
2022-10-02T05:58:22.894Z,72.70
2022-10-02T06:04:46.409Z,71.28
2022-10-02T06:10:58.057Z,71.36
2022-10-02T06:17:09.139Z,70.81
2022-10-02T06:23:37.350Z,70.76
2022-10-02T06:30:13.916Z,69.82
2022-10-02T06:36:27.990Z,69.91
2022-10-02T06:42:42.084Z,69.63
2022-10-02T06:48:54.749Z,68.88
2022-10-02T07:02:23.012Z,67.80
2022-10-02T07:08:28.673Z,67.51
2022-10-02T07:15:25.736Z,67.44
2022-10-02T07:21:42.640Z,65.95
2022-10-02T07:28:12.561Z,65.03
2022-10-02T07:41:12.783Z,63.40
2022-10-02T07:54:58.527Z,59.92
2022-10-02T08:01:23.607Z,60.31
2022-10-02T08:14:22.544Z,58.21
2022-10-02T08:20:30.466Z,58.50
2022-10-02T08:26:54.170Z,57.92
2022-10-02T08:33:19.475Z,55.36
2022-10-02T08:39:36.520Z,55.05
2022-10-02T08:46:10.905Z,53.07
2022-10-02T09:05:35.660Z,52.62
2022-10-02T09:12:24.444Z,51.03
2022-10-02T09:19:02.586Z,49.94
2022-10-02T10:27:01.183Z,48.90
2022-10-02T10:33:44.390Z,47.92
2022-10-02T11:06:46.172Z,48.01
2022-10-02T11:19:54.452Z,47.13
2022-10-02T12:45:19.230Z,47.87
2022-10-02T14:57:01.192Z,55.73
2022-10-02T16:49:16.895Z,56.82
